Edgewater, Florida
Current Conditions -  °F | °C
As of 9:47 PM on Sunday 19 Oct 2014 (Local Time) from KEVB Reporting Station
Broken Clouds Broken Clouds  
Wind Chill: 73°   Ceiling: 3000
Heat Index: 73°   Visibility: 10mi
Dew Point: 64°   Wind: 13mph
Humidity: 73%   Direction: 60°ENE
Pressure: 30.05"   Gusts: NA
Location:  28.99°N, 80.9°W
Report Text: KEVB 200147Z 06011KT 10SM BKN030 23/18 A3005 RMK LAST
Loading
Personal Weather Stations






























Interactive Weather Map
Tropical Storm Tracking
New forecast layout! Learn more

10-Day Weather Forecast

Advertisements
Track Severe Weather on mobile